createdAt,value
2016-12-15T00:00:09.468Z,21.8
2016-12-15T00:01:09.504Z,21.86
2016-12-15T00:02:09.541Z,21.9
2016-12-15T00:03:09.262Z,21.74
2016-12-15T00:04:09.291Z,21.83
2016-12-15T00:05:09.311Z,21.86
2016-12-15T00:06:09.644Z,21.77
2016-12-15T00:07:09.364Z,21.8
2016-12-15T00:08:09.989Z,21.82
2016-12-15T00:09:09.742Z,21.79
2016-12-15T00:10:10.052Z,21.8
2016-12-15T00:11:09.784Z,21.77
2016-12-15T00:12:09.817Z,21.75
2016-12-15T00:13:09.841Z,21.75
2016-12-15T00:14:09.558Z,21.71
2016-12-15T00:15:09.902Z,21.82
2016-12-15T00:16:10.219Z,21.72
2016-12-15T00:17:09.944Z,21.72
2016-12-15T00:18:10.284Z,21.75
2016-12-15T00:19:10.001Z,21.71
2016-12-15T00:20:10.047Z,21.69
2016-12-15T00:21:10.067Z,21.82
2016-12-15T00:22:10.092Z,21.69
2016-12-15T00:23:10.125Z,21.74
2016-12-15T00:24:10.461Z,21.69
2016-12-15T00:25:10.178Z,21.68
2016-12-15T00:26:10.200Z,21.67
2016-12-15T00:27:10.524Z,21.75
2016-12-15T00:28:10.260Z,21.68
2016-12-15T00:29:10.281Z,21.69
2016-12-15T00:30:10.014Z,21.72
2016-12-15T00:31:10.043Z,21.65
2016-12-15T00:32:10.384Z,21.62
2016-12-15T00:33:10.500Z,21.71
2016-12-15T00:34:10.425Z,21.71
2016-12-15T00:35:10.445Z,21.69
2016-12-15T00:36:10.190Z,21.68
2016-12-15T00:37:10.215Z,21.69
2016-12-15T00:38:10.540Z,21.54
2016-12-15T00:39:10.866Z,21.67
2016-12-15T00:40:10.293Z,21.72
2016-12-15T00:41:10.626Z,21.62
2016-12-15T00:42:10.961Z,21.59
2016-12-15T00:43:10.377Z,21.59
2016-12-15T00:44:10.712Z,21.62
2016-12-15T00:45:10.733Z,21.59
2016-12-15T00:46:10.457Z,21.65
2016-12-15T00:47:10.802Z,21.54
2016-12-15T00:48:10.827Z,21.62
2016-12-15T00:49:10.540Z,21.65
2016-12-15T00:50:10.885Z,21.58
2016-12-15T00:51:10.911Z,21.64
2016-12-15T00:52:10.939Z,21.59
2016-12-15T00:53:10.971Z,21.54
2016-12-15T00:54:10.988Z,21.58
2016-12-15T00:55:11.016Z,21.58
2016-12-15T00:56:11.042Z,21.54
2016-12-15T00:57:10.766Z,21.59
2016-12-15T00:58:11.101Z,21.54
2016-12-15T00:59:10.829Z,21.61
2016-12-15T01:00:11.156Z,21.53
2016-12-15T01:01:11.187Z,21.47
2016-12-15T01:02:11.215Z,21.46
2016-12-15T01:03:10.934Z,21.52
2016-12-15T01:04:10.964Z,21.53
2016-12-15T01:05:11.612Z,21.58
2016-12-15T01:06:11.325Z,21.49
2016-12-15T01:07:11.058Z,21.47
2016-12-15T01:08:11.391Z,21.5
2016-12-15T01:09:11.415Z,21.54
2016-12-15T01:10:11.744Z,21.46
2016-12-15T01:11:11.457Z,21.47
2016-12-15T01:12:11.189Z,21.44
2016-12-15T01:13:11.214Z,21.43
2016-12-15T01:14:11.244Z,21.47
2016-12-15T01:15:11.583Z,21.43
2016-12-15T01:16:11.605Z,21.43
2016-12-15T01:17:11.333Z,21.46
2016-12-15T01:18:11.666Z,21.4
2016-12-15T01:19:11.678Z,21.4
2016-12-15T01:20:11.711Z,21.4
2016-12-15T01:21:11.433Z,21.47
2016-12-15T01:22:11.465Z,21.47
2016-12-15T01:23:11.802Z,21.43
2016-12-15T01:24:11.831Z,21.43
2016-12-15T01:25:11.858Z,21.42
2016-12-15T01:26:11.592Z,21.42
2016-12-15T01:27:11.614Z,21.42
2016-12-15T01:28:12.237Z,21.37
2016-12-15T01:29:11.962Z,21.38
2016-12-15T01:30:11.688Z,21.38
2016-12-15T01:31:11.719Z,21.37
2016-12-15T01:32:12.057Z,21.31
2016-12-15T01:33:12.082Z,21.42
2016-12-15T01:34:12.410Z,21.34
2016-12-15T01:35:12.147Z,21.37
2016-12-15T01:36:12.169Z,21.38
2016-12-15T01:37:12.193Z,21.34
2016-12-15T01:38:11.913Z,21.37
2016-12-15T01:39:11.943Z,21.35
2016-12-15T01:40:11.972Z,21.42
2016-12-15T01:41:12.003Z,21.37
2016-12-15T01:42:12.340Z,21.34
2016-12-15T01:43:12.356Z,21.43
2016-12-15T01:44:12.395Z,21.44
2016-12-15T01:45:12.417Z,21.43
2016-12-15T01:46:12.130Z,21.31
2016-12-15T01:47:12.771Z,21.38
2016-12-15T01:48:12.504Z,21.32
2016-12-15T01:49:12.221Z,21.29
2016-12-15T01:50:12.855Z,21.28
2016-12-15T01:51:12.270Z,21.38
2016-12-15T01:52:12.303Z,21.37
2016-12-15T01:53:12.636Z,21.4
2016-12-15T01:54:12.661Z,21.22
2016-12-15T01:55:12.384Z,21.34
2016-12-15T01:56:12.713Z,21.32
2016-12-15T01:57:12.734Z,21.34
2016-12-15T01:58:12.471Z,21.29
2016-12-15T01:59:12.800Z,21.37
2016-12-15T02:00:12.837Z,21.29
2016-12-15T02:01:12.558Z,21.34
2016-12-15T02:02:12.891Z,21.37
2016-12-15T02:03:12.611Z,21.34
2016-12-15T02:04:12.639Z,21.19
2016-12-15T02:05:13.271Z,21.24
2016-12-15T02:06:13.005Z,21.34
2016-12-15T02:07:12.722Z,21.24
2016-12-15T02:08:13.363Z,21.31
2016-12-15T02:09:13.083Z,21.19
2016-12-15T02:10:13.415Z,21.21
2016-12-15T02:11:12.833Z,21.27
2016-12-15T02:12:12.858Z,21.21
2016-12-15T02:13:13.502Z,21.25
2016-12-15T02:14:13.219Z,21.27
2016-12-15T02:15:13.244Z,21.27
2016-12-15T02:16:13.289Z,21.28
2016-12-15T02:17:12.997Z,21.28
2016-12-15T02:18:13.338Z,21.31
2016-12-15T02:19:13.055Z,21.28
2016-12-15T02:20:13.080Z,21.28
2016-12-15T02:21:13.440Z,21.25
2016-12-15T02:22:13.445Z,21.28
2016-12-15T02:23:13.474Z,21.28
2016-12-15T02:24:13.502Z,21.29
2016-12-15T02:25:13.223Z,21.29
2016-12-15T02:26:13.860Z,21.34
2016-12-15T02:27:13.582Z,21.25
2016-12-15T02:28:13.309Z,21.28
2016-12-15T02:29:13.640Z,21.28
2016-12-15T02:30:13.975Z,21.14
2016-12-15T02:31:13.379Z,21.28
2016-12-15T02:32:13.416Z,21.28
2016-12-15T02:33:13.760Z,21.24
2016-12-15T02:34:13.797Z,21.22
2016-12-15T02:35:14.105Z,21.19
2016-12-15T02:36:13.835Z,21.19
2016-12-15T02:37:13.859Z,21.19
2016-12-15T02:38:14.193Z,21.22
2016-12-15T02:39:14.225Z,21.16
2016-12-15T02:40:13.642Z,21.16
2016-12-15T02:41:13.971Z,21.17
2016-12-15T02:42:14.003Z,21.1
2016-12-15T02:43:14.024Z,21.17
2016-12-15T02:44:14.057Z,21.21
2016-12-15T02:45:14.110Z,21.16
2016-12-15T02:46:14.103Z,21.22
2016-12-15T02:47:14.435Z,21.17
2016-12-15T02:48:14.157Z,21.04
2016-12-15T02:49:14.190Z,21.1
2016-12-15T02:50:13.913Z,21.07
2016-12-15T02:51:14.250Z,21.13
2016-12-15T02:52:14.587Z,21.16
2016-12-15T02:53:14.004Z,21.13
2016-12-15T02:54:14.328Z,21.1
2016-12-15T02:55:14.042Z,21.16
2016-12-15T02:56:14.081Z,21.17
2016-12-15T02:57:14.422Z,21.16
2016-12-15T02:58:14.439Z,21.13
2016-12-15T02:59:14.164Z,21.13
2016-12-15T03:00:14.496Z,21.13
2016-12-15T03:01:14.537Z,21.13
2016-12-15T03:02:14.554Z,21.07
2016-12-15T03:03:14.579Z,21.12
2016-12-15T03:04:14.300Z,21.13
2016-12-15T03:05:14.331Z,21.13
2016-12-15T03:06:14.356Z,21.14
2016-12-15T03:07:14.689Z,21.13
2016-12-15T03:08:14.418Z,21.07
2016-12-15T03:09:14.754Z,21.12
2016-12-15T03:10:14.775Z,21.14
2016-12-15T03:11:14.804Z,21.07
2016-12-15T03:12:14.833Z,21.07
2016-12-15T03:13:14.857Z,21.13
2016-12-15T03:14:14.602Z,21.06
2016-12-15T03:15:14.912Z,21.07
2016-12-15T03:16:14.944Z,21.07
2016-12-15T03:17:14.992Z,21.07
2016-12-15T03:18:14.689Z,21.07
2016-12-15T03:19:15.326Z,21.04
2016-12-15T03:20:15.363Z,21.03
2016-12-15T03:21:15.379Z,21.07
2016-12-15T03:22:14.803Z,21.03
2016-12-15T03:23:15.129Z,21.06
2016-12-15T03:24:15.161Z,21.03
2016-12-15T03:25:14.878Z,21.06
2016-12-15T03:26:15.215Z,21.03
2016-12-15T03:27:14.939Z,20.99
2016-12-15T03:28:14.972Z,20.98
2016-12-15T03:29:15.293Z,21.01
2016-12-15T03:30:15.323Z,21.04
2016-12-15T03:31:15.046Z,20.98
2016-12-15T03:32:15.383Z,21.03
2016-12-15T03:33:15.109Z,20.99
2016-12-15T03:34:15.437Z,21.04
2016-12-15T03:35:15.465Z,21.04
2016-12-15T03:36:15.798Z,21.01
2016-12-15T03:37:15.523Z,20.97
2016-12-15T03:38:15.535Z,21.04
2016-12-15T03:39:15.269Z,21.04
2016-12-15T03:40:15.297Z,21.03
2016-12-15T03:41:15.626Z,21.09
2016-12-15T03:42:15.351Z,20.94
2016-12-15T03:43:15.683Z,21.06
2016-12-15T03:44:15.712Z,20.94
2016-12-15T03:45:15.437Z,21.06
2016-12-15T03:46:16.066Z,20.95
2016-12-15T03:47:15.494Z,20.98
2016-12-15T03:48:15.815Z,21.01
2016-12-15T03:49:15.846Z,20.99
2016-12-15T03:50:15.569Z,21.04
2016-12-15T03:51:15.609Z,21.03
2016-12-15T03:52:15.946Z,21.03
2016-12-15T03:53:15.662Z,20.92
2016-12-15T03:54:16.292Z,20.99
2016-12-15T03:55:16.016Z,21.01
2016-12-15T03:56:16.040Z,20.92
2016-12-15T03:57:16.065Z,20.88
2016-12-15T03:58:16.090Z,20.95
2016-12-15T03:59:15.819Z,20.92
2016-12-15T04:00:16.147Z,20.94
2016-12-15T04:01:16.180Z,20.99
2016-12-15T04:02:16.213Z,20.97
2016-12-15T04:03:16.229Z,20.95
2016-12-15T04:04:15.955Z,20.99
2016-12-15T04:05:15.987Z,20.98
2016-12-15T04:06:16.615Z,20.92
2016-12-15T04:07:16.041Z,20.94
2016-12-15T04:08:16.069Z,20.97
2016-12-15T04:09:16.094Z,20.97
2016-12-15T04:10:16.731Z,20.97
2016-12-15T04:11:16.464Z,20.98
2016-12-15T04:12:16.792Z,20.97
2016-12-15T04:13:16.504Z,21.03
2016-12-15T04:14:16.236Z,20.98
2016-12-15T04:15:16.570Z,20.98
2016-12-15T04:16:16.283Z,20.97
2016-12-15T04:17:16.927Z,20.98
2016-12-15T04:18:16.653Z,21.01
2016-12-15T04:19:16.673Z,20.91
2016-12-15T04:20:17.010Z,21.03
2016-12-15T04:21:17.034Z,20.92
2016-12-15T04:22:16.763Z,20.89
2016-12-15T04:23:16.492Z,20.98
2016-12-15T04:24:17.125Z,20.92
2016-12-15T04:25:16.542Z,20.92
2016-12-15T04:26:16.862Z,21.04
2016-12-15T04:27:17.207Z,21.03
2016-12-15T04:28:17.236Z,20.91
2016-12-15T04:29:17.269Z,20.95
2016-12-15T04:30:16.969Z,20.98
2016-12-15T04:31:17.005Z,20.98
2016-12-15T04:32:17.347Z,20.97
2016-12-15T04:33:17.059Z,20.94
2016-12-15T04:34:16.785Z,20.98
2016-12-15T04:35:17.117Z,20.91
2016-12-15T04:36:17.142Z,20.99
2016-12-15T04:37:16.870Z,20.95
2016-12-15T04:38:17.199Z,20.85
2016-12-15T04:39:16.919Z,20.92
2016-12-15T04:40:16.947Z,20.97
2016-12-15T04:41:16.974Z,20.92
2016-12-15T04:42:17.001Z,20.92
2016-12-15T04:43:17.330Z,20.89
2016-12-15T04:44:17.387Z,20.99
2016-12-15T04:45:17.396Z,20.94
2016-12-15T04:46:17.728Z,20.92
2016-12-15T04:47:17.436Z,20.94
2016-12-15T04:48:17.165Z,20.82
2016-12-15T04:49:17.190Z,20.87
2016-12-15T04:50:17.527Z,20.87
2016-12-15T04:51:17.556Z,20.88
2016-12-15T04:52:17.588Z,20.85
2016-12-15T04:53:17.913Z,20.88
2016-12-15T04:54:17.648Z,20.87
2016-12-15T04:55:17.350Z,20.87
2016-12-15T04:56:17.683Z,20.89
2016-12-15T04:57:17.712Z,20.84
2016-12-15T04:58:17.748Z,20.89
2016-12-15T04:59:17.777Z,20.87
2016-12-15T05:00:17.498Z,20.84
2016-12-15T05:01:17.531Z,20.88
2016-12-15T05:02:17.551Z,20.94
2016-12-15T05:03:18.196Z,20.88
2016-12-15T05:04:18.208Z,20.76
2016-12-15T05:05:17.652Z,20.88
2016-12-15T05:06:17.958Z,20.92
2016-12-15T05:07:17.690Z,20.91
2016-12-15T05:08:17.719Z,20.88
2016-12-15T05:09:18.056Z,20.87
2016-12-15T05:10:17.772Z,20.84
2016-12-15T05:11:18.413Z,20.89
2016-12-15T05:12:17.821Z,20.89
2016-12-15T05:13:18.155Z,20.85
2016-12-15T05:14:17.879Z,20.89
2016-12-15T05:15:17.903Z,20.91
2016-12-15T05:16:18.237Z,20.91
2016-12-15T05:17:18.270Z,20.8
2016-12-15T05:18:18.598Z,20.88
2016-12-15T05:19:18.323Z,20.92
2016-12-15T05:20:18.350Z,20.85
2016-12-15T05:21:18.375Z,20.88
2016-12-15T05:22:18.693Z,20.89
2016-12-15T05:23:18.129Z,20.88
2016-12-15T05:24:18.459Z,20.85
2016-12-15T05:25:18.187Z,20.89
2016-12-15T05:26:18.520Z,20.88
2016-12-15T05:27:18.549Z,20.88
2016-12-15T05:28:18.882Z,20.87
2016-12-15T05:29:18.598Z,20.88
2016-12-15T05:30:18.318Z,20.87
2016-12-15T05:31:18.346Z,20.85
2016-12-15T05:32:18.972Z,20.87
2016-12-15T05:33:18.708Z,20.87
2016-12-15T05:34:18.421Z,20.89
2016-12-15T05:35:18.764Z,20.98
2016-12-15T05:36:18.796Z,20.87
2016-12-15T05:37:18.520Z,20.97
2016-12-15T05:38:18.545Z,20.99
2016-12-15T05:39:18.566Z,20.87
2016-12-15T05:40:18.596Z,20.92
2016-12-15T05:41:18.623Z,20.95
2016-12-15T05:42:19.251Z,20.98
2016-12-15T05:43:18.988Z,20.94
2016-12-15T05:44:19.013Z,21.04
2016-12-15T05:45:19.345Z,20.99
2016-12-15T05:46:19.379Z,21.03
2016-12-15T05:47:18.782Z,21.07
2016-12-15T05:48:19.124Z,21.09
2016-12-15T05:49:19.144Z,21.07
2016-12-15T05:50:18.870Z,21.1
2016-12-15T05:51:19.209Z,21.13
2016-12-15T05:52:19.543Z,21.13
2016-12-15T05:53:19.555Z,21.16
2016-12-15T05:54:19.288Z,21.13
2016-12-15T05:55:19.623Z,21.21
2016-12-15T05:56:19.350Z,21.21
2016-12-15T05:57:19.674Z,21.16
2016-12-15T05:58:19.083Z,21.25
2016-12-15T05:59:19.723Z,21.24
2016-12-15T06:00:19.453Z,21.25
2016-12-15T06:01:19.181Z,21.31
2016-12-15T06:02:19.506Z,21.32
2016-12-15T06:03:19.834Z,21.34
2016-12-15T06:04:19.559Z,21.38
2016-12-15T06:05:19.592Z,21.32
2016-12-15T06:06:19.612Z,21.37
2016-12-15T06:07:19.953Z,21.29
2016-12-15T06:08:19.986Z,21.46
2016-12-15T06:09:19.394Z,21.43
2016-12-15T06:10:19.728Z,21.4
2016-12-15T06:11:19.462Z,21.5
2016-12-15T06:12:19.481Z,21.47
2016-12-15T06:13:19.811Z,21.44
2016-12-15T06:14:20.139Z,21.58
2016-12-15T06:15:19.867Z,21.61
2016-12-15T06:16:19.884Z,21.62
2016-12-15T06:17:19.921Z,21.62
2016-12-15T06:18:19.641Z,21.68
2016-12-15T06:19:19.978Z,21.62
2016-12-15T06:20:19.703Z,21.56
2016-12-15T06:21:19.727Z,21.58
2016-12-15T06:22:20.056Z,21.69
2016-12-15T06:23:20.085Z,21.72
2016-12-15T06:24:19.815Z,21.77
2016-12-15T06:25:20.445Z,21.75
2016-12-15T06:26:19.859Z,21.68
2016-12-15T06:27:20.195Z,21.71
2016-12-15T06:28:19.924Z,21.82
2016-12-15T06:29:20.252Z,21.75
2016-12-15T06:30:20.276Z,21.82
2016-12-15T06:31:20.345Z,21.84
2016-12-15T06:32:20.023Z,21.82
2016-12-15T06:33:20.663Z,21.83
2016-12-15T06:34:20.390Z,21.8
2016-12-15T06:35:20.425Z,21.91
2016-12-15T06:36:20.746Z,21.83
2016-12-15T06:37:20.783Z,21.9
2016-12-15T06:38:20.491Z,21.79
2016-12-15T06:39:20.840Z,21.9
2016-12-15T06:40:20.248Z,21.9
2016-12-15T06:41:20.881Z,21.92
2016-12-15T06:42:20.314Z,21.91
2016-12-15T06:43:20.632Z,21.98
2016-12-15T06:44:20.659Z,21.94
2016-12-15T06:45:20.396Z,21.91
2016-12-15T06:46:21.024Z,21.92
2016-12-15T06:47:20.451Z,21.94
2016-12-15T06:48:20.766Z,21.98
2016-12-15T06:49:20.498Z,21.92
2016-12-15T06:50:20.531Z,21.9
2016-12-15T06:51:20.856Z,21.99
2016-12-15T06:52:20.585Z,22
2016-12-15T06:53:20.617Z,21.99
2016-12-15T06:54:21.254Z,21.99
2016-12-15T06:55:20.970Z,21.98
2016-12-15T06:56:21.007Z,22
2016-12-15T06:57:21.032Z,22.03
2016-12-15T06:58:21.352Z,21.99
2016-12-15T06:59:21.397Z,22.02
2016-12-15T07:00:20.809Z,22.07
2016-12-15T07:01:21.157Z,22.09
2016-12-15T07:02:20.859Z,22.05
2016-12-15T07:03:21.202Z,22
2016-12-15T07:04:20.925Z,21.99
2016-12-15T07:05:21.261Z,22.03
2016-12-15T07:06:21.613Z,22.02
2016-12-15T07:07:21.606Z,22.09
2016-12-15T07:08:21.331Z,22.03
2016-12-15T07:09:21.067Z,22.09
2016-12-15T07:10:21.083Z,22.12
2016-12-15T07:11:21.433Z,22.1
2016-12-15T07:12:21.149Z,22.02
2016-12-15T07:13:21.478Z,22.14
2016-12-15T07:14:21.498Z,22.09
2016-12-15T07:15:21.531Z,22.1
2016-12-15T07:16:21.555Z,22.12
2016-12-15T07:17:21.589Z,22.12
2016-12-15T07:18:21.610Z,22.09
2016-12-15T07:19:21.946Z,22.15
2016-12-15T07:20:21.366Z,22.18
2016-12-15T07:21:21.391Z,22.12
2016-12-15T07:22:21.432Z,22.12
2016-12-15T07:23:22.065Z,22.17
2016-12-15T07:24:21.481Z,22.06
2016-12-15T07:25:21.826Z,22.15
2016-12-15T07:26:21.843Z,22.06
2016-12-15T07:27:22.172Z,22.15
2016-12-15T07:28:21.893Z,22.17
2016-12-15T07:29:21.917Z,22.14
2016-12-15T07:30:21.946Z,22.1
2016-12-15T07:31:21.975Z,22.14
2016-12-15T07:32:22.003Z,22.15
2016-12-15T07:33:22.037Z,22.15
2016-12-15T07:34:22.073Z,22.06
2016-12-15T07:35:22.400Z,22.12
2016-12-15T07:36:21.822Z,22.07
2016-12-15T07:37:21.843Z,22.1
2016-12-15T07:38:22.167Z,22.17
2016-12-15T07:39:22.500Z,22.07
2016-12-15T07:40:22.537Z,22.1
2016-12-15T07:41:22.565Z,22.12
2016-12-15T07:42:21.982Z,22.1
2016-12-15T07:43:22.011Z,22.05
2016-12-15T07:44:22.348Z,22.05
2016-12-15T07:45:22.076Z,22.06
2016-12-15T07:46:22.102Z,22.15
2016-12-15T07:47:22.126Z,22.1
2016-12-15T07:48:22.155Z,22.09
2016-12-15T07:49:22.179Z,22.07
2016-12-15T07:50:22.208Z,22.02
2016-12-15T07:51:22.549Z,22.09
2016-12-15T07:52:22.570Z,22.06
2016-12-15T07:53:22.595Z,22.06
2016-12-15T07:54:22.623Z,22.05
2016-12-15T07:55:22.664Z,22
2016-12-15T07:56:22.378Z,22.05
2016-12-15T07:57:22.726Z,22.1
2016-12-15T07:58:22.451Z,21.98
2016-12-15T07:59:23.068Z,22.07
2016-12-15T08:00:22.801Z,22.05
2016-12-15T08:01:22.515Z,21.99
2016-12-15T08:02:22.851Z,21.92
2016-12-15T08:03:22.573Z,21.9
2016-12-15T08:04:22.891Z,21.98
2016-12-15T08:05:23.225Z,21.9
2016-12-15T08:06:22.953Z,21.98
2016-12-15T08:07:22.678Z,21.92
2016-12-15T08:08:23.019Z,21.96
2016-12-15T08:09:23.052Z,21.94
2016-12-15T08:10:23.077Z,22
2016-12-15T08:11:23.106Z,21.94
2016-12-15T08:12:23.135Z,21.83
2016-12-15T08:13:22.900Z,21.82
2016-12-15T08:14:23.497Z,21.83
2016-12-15T08:15:23.521Z,21.88
2016-12-15T08:16:23.254Z,21.82
2016-12-15T08:17:23.303Z,21.75
2016-12-15T08:18:23.000Z,21.9
2016-12-15T08:19:23.328Z,21.84
2016-12-15T08:20:23.361Z,21.83
2016-12-15T08:21:23.382Z,21.9
2016-12-15T08:22:23.111Z,21.83
2016-12-15T08:23:23.136Z,21.86
2016-12-15T08:24:23.168Z,21.83
2016-12-15T08:25:23.497Z,21.84
2016-12-15T08:26:23.838Z,21.86
2016-12-15T08:27:23.542Z,21.8
2016-12-15T08:28:23.590Z,21.84
2016-12-15T08:29:23.600Z,21.8
2016-12-15T08:30:23.949Z,21.77
2016-12-15T08:31:23.357Z,21.79
2016-12-15T08:32:24.006Z,21.79
2016-12-15T08:33:23.739Z,21.72
2016-12-15T08:34:23.760Z,21.72
2016-12-15T08:35:23.789Z,21.75
2016-12-15T08:36:23.505Z,21.79
2016-12-15T08:37:24.143Z,21.72
2016-12-15T08:38:23.560Z,21.74
2016-12-15T08:39:23.891Z,21.74
2016-12-15T08:40:23.925Z,21.74
2016-12-15T08:41:23.950Z,21.74
2016-12-15T08:42:23.982Z,21.71
2016-12-15T08:43:24.003Z,21.67
2016-12-15T08:44:24.340Z,21.69
2016-12-15T08:45:23.757Z,21.68
2016-12-15T08:46:24.094Z,21.69
2016-12-15T08:47:24.426Z,21.71
2016-12-15T08:48:24.451Z,21.67
2016-12-15T08:49:24.479Z,21.64
2016-12-15T08:50:24.193Z,21.58
2016-12-15T08:51:23.929Z,21.67
2016-12-15T08:52:24.257Z,21.65
2016-12-15T08:53:24.299Z,21.58
2016-12-15T08:54:24.624Z,21.68
2016-12-15T08:55:24.349Z,21.71
2016-12-15T08:56:24.370Z,21.56
2016-12-15T08:57:24.710Z,21.61
2016-12-15T08:58:24.431Z,21.59
2016-12-15T08:59:24.759Z,21.58
2016-12-15T09:00:24.789Z,21.62
2016-12-15T09:01:24.517Z,21.64
2016-12-15T09:02:24.541Z,21.58
2016-12-15T09:03:24.871Z,21.62
2016-12-15T09:04:24.604Z,21.58
2016-12-15T09:05:24.321Z,21.58
2016-12-15T09:06:24.958Z,21.56
2016-12-15T09:07:24.373Z,21.56
2016-12-15T09:08:24.404Z,21.64
2016-12-15T09:09:24.736Z,21.58
2016-12-15T09:10:24.765Z,21.56
2016-12-15T09:11:24.485Z,21.53
2016-12-15T09:12:24.858Z,21.61
2016-12-15T09:13:24.555Z,21.53
2016-12-15T09:14:24.884Z,21.58
2016-12-15T09:15:25.214Z,21.61
2016-12-15T09:16:24.934Z,21.53
2016-12-15T09:17:24.962Z,21.56
2016-12-15T09:18:24.683Z,21.59
2016-12-15T09:19:25.016Z,21.58
2016-12-15T09:20:25.348Z,21.5
2016-12-15T09:21:25.082Z,21.56
2016-12-15T09:22:25.406Z,21.49
2016-12-15T09:23:25.144Z,21.49
2016-12-15T09:24:24.860Z,21.54
2016-12-15T09:25:25.197Z,21.44
2016-12-15T09:26:24.910Z,21.47
2016-12-15T09:27:25.250Z,21.46
2016-12-15T09:28:25.267Z,21.49
2016-12-15T09:29:24.992Z,21.49
2016-12-15T09:30:25.028Z,21.49
2016-12-15T09:31:25.354Z,21.49
2016-12-15T09:32:25.078Z,21.49
2016-12-15T09:33:25.416Z,21.47
2016-12-15T09:34:25.467Z,21.44
2016-12-15T09:35:25.156Z,21.43
2016-12-15T09:36:25.798Z,21.44
2016-12-15T09:37:25.830Z,21.43
2016-12-15T09:38:25.547Z,21.44
2016-12-15T09:39:25.880Z,21.43
2016-12-15T09:40:25.920Z,21.44
2016-12-15T09:41:25.640Z,21.44
2016-12-15T09:42:25.658Z,21.46
2016-12-15T09:43:25.690Z,21.42
2016-12-15T09:44:26.019Z,21.43
2016-12-15T09:45:25.768Z,21.42
2016-12-15T09:46:25.461Z,21.46
2016-12-15T09:47:26.111Z,21.42
2016-12-15T09:48:25.834Z,21.46
2016-12-15T09:49:25.563Z,21.4
2016-12-15T09:50:25.584Z,21.34
2016-12-15T09:51:25.609Z,21.38
2016-12-15T09:52:25.946Z,21.37
2016-12-15T09:53:25.975Z,21.35
2016-12-15T09:54:25.992Z,21.38
2016-12-15T09:55:25.712Z,21.35
2016-12-15T09:56:26.058Z,21.34
2016-12-15T09:57:25.777Z,21.29
2016-12-15T09:58:25.810Z,21.34
2016-12-15T09:59:26.435Z,21.32
2016-12-15T10:00:26.164Z,21.35
2016-12-15T10:01:26.500Z,21.32
2016-12-15T10:02:26.213Z,21.37
2016-12-15T10:03:26.246Z,21.42
2016-12-15T10:04:25.971Z,21.37
2016-12-15T10:05:26.303Z,21.42
2016-12-15T10:06:26.024Z,21.37
2016-12-15T10:07:26.366Z,21.35
2016-12-15T10:08:26.390Z,21.37
2016-12-15T10:09:26.423Z,21.35
2016-12-15T10:10:26.447Z,21.32
2016-12-15T10:11:26.468Z,21.4
2016-12-15T10:12:26.493Z,21.37
2016-12-15T10:13:26.530Z,21.35
2016-12-15T10:14:26.549Z,21.34
2016-12-15T10:15:26.596Z,21.34
2016-12-15T10:16:26.309Z,21.34
2016-12-15T10:17:26.945Z,21.4
2016-12-15T10:18:26.677Z,21.46
2016-12-15T10:19:26.694Z,21.34
2016-12-15T10:20:26.406Z,21.34
2016-12-15T10:21:26.439Z,21.38
2016-12-15T10:22:26.476Z,21.46
2016-12-15T10:23:26.809Z,21.37
2016-12-15T10:24:26.838Z,21.43
2016-12-15T10:25:26.554Z,21.34
2016-12-15T10:26:27.197Z,21.32
2016-12-15T10:27:26.924Z,21.37
2016-12-15T10:28:27.257Z,21.32
2016-12-15T10:29:26.665Z,21.37
2016-12-15T10:30:27.302Z,21.38
2016-12-15T10:31:27.018Z,21.42
2016-12-15T10:32:27.055Z,21.32
2016-12-15T10:33:26.776Z,21.29
2016-12-15T10:34:27.124Z,21.34
2016-12-15T10:35:26.846Z,21.37
2016-12-15T10:36:27.172Z,21.4
2016-12-15T10:37:27.200Z,21.4
2016-12-15T10:38:27.228Z,21.34
2016-12-15T10:39:27.248Z,21.31
2016-12-15T10:40:27.585Z,21.31
2016-12-15T10:41:27.311Z,21.31
2016-12-15T10:42:27.645Z,21.34
2016-12-15T10:43:27.671Z,21.35
2016-12-15T10:44:27.092Z,21.31
2016-12-15T10:45:27.429Z,21.31
2016-12-15T10:46:27.753Z,21.37
2016-12-15T10:47:27.475Z,21.37
2016-12-15T10:48:27.504Z,21.29
2016-12-15T10:49:27.831Z,21.38
2016-12-15T10:50:27.561Z,21.35
2016-12-15T10:51:27.581Z,21.32
2016-12-15T10:52:27.618Z,21.34
2016-12-15T10:53:27.943Z,21.37
2016-12-15T10:54:27.372Z,21.34
2016-12-15T10:55:28.005Z,21.32
2016-12-15T10:56:27.724Z,21.29
2016-12-15T10:57:27.756Z,21.34
2016-12-15T10:58:27.782Z,21.32
2016-12-15T10:59:27.807Z,21.29
2016-12-15T11:00:27.831Z,21.24
2016-12-15T11:01:27.864Z,21.21
2016-12-15T11:02:27.589Z,21.34
2016-12-15T11:03:28.226Z,21.21
2016-12-15T11:04:27.961Z,21.25
2016-12-15T11:05:27.970Z,21.24
2016-12-15T11:06:28.004Z,21.25
2016-12-15T11:07:27.733Z,21.25
2016-12-15T11:08:27.761Z,21.27
2016-12-15T11:09:28.390Z,21.19
2016-12-15T11:10:28.419Z,21.28
2016-12-15T11:11:28.151Z,21.27
2016-12-15T11:12:28.176Z,21.21
2016-12-15T11:13:28.497Z,21.28
2016-12-15T11:14:28.521Z,21.25
2016-12-15T11:15:28.564Z,21.28
2016-12-15T11:16:27.979Z,21.28
2016-12-15T11:17:28.004Z,21.27
2016-12-15T11:18:28.344Z,21.28
2016-12-15T11:19:28.061Z,21.28
2016-12-15T11:20:28.093Z,21.24
2016-12-15T11:21:28.743Z,21.27
2016-12-15T11:22:28.747Z,21.27
2016-12-15T11:23:28.172Z,21.27
2016-12-15T11:24:28.205Z,21.42
2016-12-15T11:25:28.225Z,21.34
2016-12-15T11:26:28.262Z,21.31
2016-12-15T11:27:28.587Z,21.29
2016-12-15T11:28:28.612Z,21.29
2016-12-15T11:29:28.665Z,21.34
2016-12-15T11:30:28.671Z,21.38
2016-12-15T11:31:28.393Z,21.38
2016-12-15T11:32:28.418Z,21.37
2016-12-15T11:33:29.062Z,21.38
2016-12-15T11:34:28.775Z,21.38
2016-12-15T11:35:28.812Z,21.4
2016-12-15T11:36:29.145Z,21.42
2016-12-15T11:37:28.866Z,21.43
2016-12-15T11:38:28.899Z,21.31
2016-12-15T11:39:29.223Z,21.34
2016-12-15T11:40:28.956Z,21.4
2016-12-15T11:41:28.672Z,21.34
2016-12-15T11:42:29.306Z,21.35
2016-12-15T11:43:29.026Z,21.34
2016-12-15T11:44:28.759Z,21.42
2016-12-15T11:45:29.400Z,21.35
2016-12-15T11:46:29.428Z,21.38
2016-12-15T11:47:29.453Z,21.34
2016-12-15T11:48:29.169Z,21.42
2016-12-15T11:49:29.198Z,21.4
2016-12-15T11:50:29.227Z,21.38
2016-12-15T11:51:29.563Z,21.34
2016-12-15T11:52:29.589Z,21.28
2016-12-15T11:53:29.017Z,21.35
2016-12-15T11:54:29.651Z,21.31
2016-12-15T11:55:29.367Z,21.31
2016-12-15T11:56:29.691Z,21.31
2016-12-15T11:57:29.419Z,21.32
2016-12-15T11:58:29.784Z,21.28
2016-12-15T11:59:29.488Z,21.32
2016-12-15T12:00:29.522Z,21.34
2016-12-15T12:01:29.234Z,21.35
2016-12-15T12:02:29.262Z,21.28
2016-12-15T12:03:29.291Z,21.28
2016-12-15T12:04:29.620Z,21.37
2016-12-15T12:05:29.942Z,21.29
2016-12-15T12:06:29.364Z,21.27
2016-12-15T12:07:29.397Z,21.29
2016-12-15T12:08:29.457Z,21.29
2016-12-15T12:09:29.452Z,21.35
2016-12-15T12:10:29.784Z,21.27
2016-12-15T12:11:29.827Z,21.29
2016-12-15T12:12:29.840Z,21.37
2016-12-15T12:13:29.876Z,21.24
2016-12-15T12:14:29.884Z,21.32
2016-12-15T12:15:29.921Z,21.31
2016-12-15T12:16:30.253Z,21.28
2016-12-15T12:17:29.970Z,21.25
2016-12-15T12:18:30.023Z,21.21
2016-12-15T12:19:30.336Z,21.24
2016-12-15T12:20:30.060Z,21.28
2016-12-15T12:21:30.097Z,21.24
2016-12-15T12:22:29.805Z,21.34
2016-12-15T12:23:30.446Z,21.24
2016-12-15T12:24:30.174Z,21.27
2016-12-15T12:25:29.891Z,21.28
2016-12-15T12:26:29.927Z,21.29
2016-12-15T12:27:29.948Z,21.28
2016-12-15T12:28:30.292Z,21.28
2016-12-15T12:29:30.313Z,21.21
2016-12-15T12:30:30.350Z,21.27
2016-12-15T12:31:30.666Z,21.34
2016-12-15T12:32:30.391Z,21.29
2016-12-15T12:33:30.415Z,21.29
2016-12-15T12:34:30.444Z,21.31
2016-12-15T12:35:30.482Z,21.17
2016-12-15T12:36:30.502Z,21.16
2016-12-15T12:37:30.539Z,21.25
2016-12-15T12:38:30.863Z,21.16
2016-12-15T12:39:30.592Z,21.21
2016-12-15T12:40:30.300Z,21.22
2016-12-15T12:41:30.331Z,21.19
2016-12-15T12:42:30.670Z,21.14
2016-12-15T12:43:30.392Z,21.19
2016-12-15T12:44:30.419Z,21.22
2016-12-15T12:45:30.760Z,21.24
2016-12-15T12:46:31.089Z,21.24
2016-12-15T12:47:30.816Z,21.16
2016-12-15T12:48:30.850Z,21.21
2016-12-15T12:49:30.863Z,21.22
2016-12-15T12:50:30.887Z,21.19
2016-12-15T12:51:30.920Z,21.17
2016-12-15T12:52:30.945Z,21.19
2016-12-15T12:53:31.282Z,21.17
2016-12-15T12:54:31.000Z,21.14